createdAt,value
2022-11-05T00:01:53.315Z,21.13
2022-11-05T00:04:39.033Z,15.82
2022-11-05T00:07:47.296Z,15.52
2022-11-05T00:10:19.724Z,14.60
2022-11-05T00:13:05.566Z,16.42
2022-11-05T00:15:51.649Z,19.35
2022-11-05T00:18:19.094Z,15.10
2022-11-05T00:20:46.328Z,14.45
2022-11-05T00:23:31.950Z,16.13
2022-11-05T00:26:07.769Z,15.95
2022-11-05T00:28:35.784Z,13.52
2022-11-05T00:31:13.558Z,18.48
2022-11-05T00:33:42.787Z,21.05
2022-11-05T00:36:13.254Z,17.58
2022-11-05T00:38:40.556Z,14.65
2022-11-05T00:41:08.181Z,15.25
2022-11-05T00:43:54.017Z,17.83
2022-11-05T00:46:21.218Z,20.67
2022-11-05T00:49:08.770Z,18.60
2022-11-05T00:51:36.109Z,21.05
2022-11-05T00:54:03.365Z,14.88
2022-11-05T00:56:31.823Z,17.42
2022-11-05T00:58:59.028Z,20.30
2022-11-05T01:01:26.314Z,23.25
2022-11-05T01:03:54.030Z,18.20
2022-11-05T01:06:21.265Z,18.60
2022-11-05T01:08:49.791Z,21.70
2022-11-05T01:11:34.506Z,16.03
2022-11-05T01:14:07.774Z,18.95
2022-11-05T01:16:35.577Z,18.55
2022-11-05T01:19:03.438Z,18.83
2022-11-05T01:21:30.657Z,16.48
2022-11-05T01:23:57.907Z,21.88
2022-11-05T01:26:25.184Z,18.33
2022-11-05T01:28:53.819Z,26.77
2022-11-05T01:31:21.405Z,20.70
2022-11-05T01:33:48.672Z,18.13
2022-11-05T01:36:15.938Z,23.58
2022-11-05T01:38:43.168Z,19.08
2022-11-05T01:41:10.438Z,19.73
2022-11-05T01:43:56.433Z,17.75
2022-11-05T01:46:31.505Z,23.05
2022-11-05T01:49:07.279Z,17.75
2022-11-05T01:51:34.523Z,19.10
2022-11-05T01:54:05.092Z,20.05
2022-11-05T01:56:38.421Z,16.65
2022-11-05T01:59:15.313Z,20.77
2022-11-05T02:01:43.055Z,16.88
2022-11-05T02:04:16.702Z,19.70
2022-11-05T02:06:46.223Z,21.52
2022-11-05T02:09:18.468Z,19.75
2022-11-05T02:11:46.091Z,25.42
2022-11-05T02:14:13.361Z,17.13
2022-11-05T02:16:46.619Z,21.17
2022-11-05T02:20:00.799Z,22.52
2022-11-05T02:23:01.831Z,23.17
2022-11-05T02:25:59.913Z,18.52
2022-11-05T02:28:54.655Z,16.35
2022-11-05T02:31:40.398Z,16.52
2022-11-05T02:34:16.055Z,19.88
2022-11-05T02:36:50.757Z,20.98
2022-11-05T02:39:23.996Z,17.98
2022-11-05T02:42:15.917Z,17.92
2022-11-05T02:44:55.956Z,16.42
2022-11-05T02:47:34.058Z,16.88
2022-11-05T02:50:24.150Z,14.43
2022-11-05T02:53:17.289Z,17.48
2022-11-05T02:55:54.088Z,15.68
2022-11-05T02:58:21.636Z,21.65
2022-11-05T03:00:56.446Z,16.27
2022-11-05T03:03:37.362Z,18.75
2022-11-05T03:06:32.338Z,23.73
2022-11-05T03:09:13.928Z,16.80
2022-11-05T03:12:09.340Z,18.98
2022-11-05T03:14:42.451Z,14.15
2022-11-05T03:17:40.715Z,13.60
2022-11-05T03:20:15.136Z,20.10
2022-11-05T03:23:10.910Z,15.00
2022-11-05T03:25:46.922Z,18.80
2022-11-05T03:28:17.270Z,15.13
2022-11-05T03:30:45.933Z,14.90
2022-11-05T03:33:18.192Z,19.75
2022-11-05T03:35:48.454Z,20.17
2022-11-05T03:38:29.441Z,24.35
2022-11-05T03:40:59.101Z,13.85
2022-11-05T03:43:30.183Z,21.85
2022-11-05T03:46:01.078Z,17.08
2022-11-05T03:48:29.444Z,18.10
2022-11-05T03:51:28.589Z,13.23
2022-11-05T03:54:02.999Z,16.15
2022-11-05T03:56:53.589Z,14.60
2022-11-05T03:59:21.116Z,14.40
2022-11-05T04:01:48.736Z,15.85
2022-11-05T04:04:16.250Z,17.80
2022-11-05T04:07:01.996Z,15.32
2022-11-05T04:09:47.780Z,16.30
2022-11-05T04:12:33.425Z,18.80
2022-11-05T04:15:02.890Z,18.08
2022-11-05T04:17:30.151Z,19.05
2022-11-05T04:20:16.242Z,15.25
2022-11-05T04:23:02.168Z,19.85
2022-11-05T04:25:29.400Z,19.85
2022-11-05T04:28:00.535Z,20.65
2022-11-05T04:30:27.881Z,11.85
2022-11-05T04:33:11.154Z,19.75
2022-11-05T04:35:45.449Z,18.55
2022-11-05T04:38:19.903Z,22.52
2022-11-05T04:40:48.170Z,16.02
2022-11-05T04:43:17.522Z,16.02
2022-11-05T04:45:45.547Z,19.08
2022-11-05T04:48:13.212Z,19.77
2022-11-05T04:50:40.495Z,14.32
2022-11-05T04:53:08.133Z,27.95
2022-11-05T04:55:35.469Z,16.45
2022-11-05T04:58:02.654Z,19.60
2022-11-05T05:00:29.928Z,14.07
2022-11-05T05:02:57.517Z,21.38
2022-11-05T05:05:24.777Z,25.67
2022-11-05T05:07:52.010Z,22.15
2022-11-05T05:10:19.287Z,18.15
2022-11-05T05:12:46.551Z,23.65
2022-11-05T05:15:13.830Z,17.65
2022-11-05T05:17:40.963Z,13.57
2022-11-05T05:20:26.858Z,12.90
2022-11-05T05:22:54.990Z,21.05
2022-11-05T05:25:22.886Z,17.80
2022-11-05T05:27:50.118Z,23.70
2022-11-05T05:30:17.668Z,24.77
2022-11-05T05:32:44.939Z,16.92
2022-11-05T05:35:12.360Z,19.15
2022-11-05T05:37:39.546Z,25.13
2022-11-05T05:40:07.216Z,17.13
2022-11-05T05:42:38.752Z,24.38
2022-11-05T05:45:09.725Z,23.73
2022-11-05T05:47:37.043Z,22.80
2022-11-05T05:50:04.559Z,25.33
2022-11-05T05:52:31.740Z,22.67
2022-11-05T05:55:01.031Z,24.83
2022-11-05T05:59:55.387Z,22.40
2022-11-05T06:02:23.000Z,28.52
2022-11-05T06:04:50.477Z,23.98
2022-11-05T06:07:17.626Z,14.95
2022-11-05T06:09:44.808Z,28.38
2022-11-05T06:12:12.564Z,26.13
2022-11-05T06:14:39.879Z,21.50
2022-11-05T06:17:10.229Z,21.00
2022-11-05T06:19:37.401Z,21.83
2022-11-05T06:22:04.688Z,23.90
2022-11-05T06:24:31.942Z,24.20
2022-11-05T06:26:59.653Z,24.27
2022-11-05T06:29:27.100Z,28.83
2022-11-05T06:31:54.326Z,21.92
2022-11-05T06:34:21.587Z,25.20
2022-11-05T06:36:48.782Z,24.10
2022-11-05T06:39:15.988Z,24.95
2022-11-05T06:42:11.760Z,27.05
2022-11-05T06:44:31.990Z,29.10
2022-11-05T06:47:00.277Z,20.40
2022-11-05T06:49:27.462Z,23.23
2022-11-05T06:51:54.739Z,22.77
2022-11-05T06:54:21.932Z,24.75
2022-11-05T06:56:49.109Z,24.23
2022-11-05T06:59:16.314Z,21.20
2022-11-05T07:01:43.642Z,25.75
2022-11-05T07:04:15.567Z,24.48
2022-11-05T07:06:42.809Z,27.13
2022-11-05T07:09:10.011Z,24.27
2022-11-05T07:11:37.216Z,25.30
2022-11-05T07:14:04.501Z,29.77
2022-11-05T07:16:31.733Z,22.15
2022-11-05T07:18:59.114Z,21.23
2022-11-05T07:21:26.382Z,19.50
2022-11-05T07:23:53.673Z,29.65
2022-11-05T07:26:20.866Z,32.35
2022-11-05T07:28:48.105Z,23.05
2022-11-05T07:31:15.330Z,27.80
2022-11-05T07:33:42.699Z,24.42
2022-11-05T07:36:10.132Z,25.02
2022-11-05T07:38:37.605Z,22.80
2022-11-05T07:41:04.927Z,20.17
2022-11-05T07:43:32.137Z,26.10
2022-11-05T07:45:59.486Z,24.42
2022-11-05T07:48:26.710Z,18.63
2022-11-05T07:50:54.615Z,26.77
2022-11-05T07:53:21.844Z,28.70
2022-11-05T07:55:49.094Z,22.50
2022-11-05T07:58:16.307Z,32.13
2022-11-05T08:00:43.706Z,24.45
2022-11-05T08:03:16.867Z,24.70
2022-11-05T08:05:46.558Z,26.95
2022-11-05T08:10:42.758Z,30.13
2022-11-05T08:13:10.666Z,27.42
2022-11-05T08:15:38.796Z,25.73
2022-11-05T08:18:21.700Z,23.48
2022-11-05T08:20:49.182Z,22.00
2022-11-05T08:23:16.620Z,25.15
2022-11-05T08:25:43.874Z,24.83
2022-11-05T08:28:12.979Z,23.00
2022-11-05T08:30:40.355Z,24.45
2022-11-05T08:33:10.754Z,18.25
2022-11-05T08:35:38.877Z,21.42
2022-11-05T08:38:07.829Z,21.70
2022-11-05T08:40:35.987Z,31.70
2022-11-05T08:43:04.721Z,26.23
2022-11-05T08:45:32.429Z,14.10
2022-11-05T08:48:15.024Z,23.17
2022-11-05T08:50:42.621Z,24.45
2022-11-05T08:53:10.956Z,19.60
2022-11-05T08:55:38.770Z,21.70
2022-11-05T08:58:09.120Z,15.63
2022-11-05T09:00:37.311Z,28.83
2022-11-05T09:03:06.432Z,22.05
2022-11-05T09:05:40.662Z,21.08
2022-11-05T09:08:11.092Z,24.38
2022-11-05T09:10:38.774Z,17.80
2022-11-05T09:13:06.550Z,21.85
2022-11-05T09:15:35.514Z,16.73
2022-11-05T09:18:05.551Z,14.45
2022-11-05T09:20:40.923Z,13.20
2022-11-05T09:23:09.800Z,22.27
2022-11-05T09:25:38.671Z,12.27
2022-11-05T09:28:26.170Z,19.00
2022-11-05T09:30:53.853Z,22.35
2022-11-05T09:33:23.202Z,19.75
2022-11-05T09:38:17.933Z,14.50
2022-11-05T09:41:32.987Z,17.38
2022-11-05T09:44:06.928Z,23.05
2022-11-05T09:47:00.163Z,14.88
2022-11-05T09:49:35.159Z,17.83
2022-11-05T09:52:03.417Z,17.65
2022-11-05T09:54:33.565Z,20.67
2022-11-05T09:57:03.319Z,15.18
2022-11-05T10:02:23.243Z,18.83
2022-11-05T10:04:56.459Z,12.85
2022-11-05T10:07:29.658Z,15.70
2022-11-05T10:10:03.767Z,18.05
2022-11-05T10:12:37.104Z,19.15
2022-11-05T10:15:16.418Z,19.65
2022-11-05T10:17:57.550Z,17.30
2022-11-05T10:20:38.577Z,15.55
2022-11-05T10:23:12.382Z,15.00
2022-11-05T10:25:42.691Z,16.40
2022-11-05T10:28:15.055Z,14.95
2022-11-05T10:30:42.827Z,18.10
2022-11-05T10:33:12.796Z,15.57
2022-11-05T10:35:50.544Z,18.75
2022-11-05T10:38:17.892Z,7.97
2022-11-05T10:40:53.157Z,17.13
2022-11-05T10:43:30.449Z,15.48
2022-11-05T10:46:23.869Z,17.60
2022-11-05T10:49:03.993Z,7.60
2022-11-05T10:51:33.143Z,13.68
2022-11-05T10:54:17.595Z,13.65
2022-11-05T10:56:45.179Z,14.98
2022-11-05T10:59:24.203Z,15.85
2022-11-05T11:02:04.429Z,19.00
2022-11-05T11:04:37.683Z,21.52
2022-11-05T11:07:05.674Z,13.70
2022-11-05T11:09:35.669Z,15.75
2022-11-05T11:12:17.316Z,13.45
2022-11-05T11:15:05.360Z,11.82
2022-11-05T11:17:34.068Z,14.23
2022-11-05T11:20:23.696Z,18.73
2022-11-05T11:23:01.635Z,14.73
2022-11-05T11:26:00.744Z,9.48
2022-11-05T11:31:11.867Z,11.45
2022-11-05T11:33:40.832Z,11.10
2022-11-05T11:36:10.509Z,12.15
2022-11-05T11:38:38.189Z,9.25
2022-11-05T11:41:26.011Z,12.80
2022-11-05T11:44:13.186Z,14.77
2022-11-05T11:46:40.823Z,10.60
2022-11-05T11:49:50.563Z,15.30
2022-11-05T11:52:34.325Z,17.80
2022-11-05T11:55:21.049Z,16.67
2022-11-05T11:58:06.421Z,9.15
2022-11-05T12:00:39.209Z,14.70
2022-11-05T12:03:09.825Z,12.35
2022-11-05T12:05:41.969Z,11.05
2022-11-05T12:08:30.540Z,11.15
2022-11-05T12:11:16.574Z,10.73
2022-11-05T12:14:26.851Z,12.05
2022-11-05T12:17:10.895Z,9.77
2022-11-05T12:20:22.571Z,18.73
2022-11-05T12:23:00.167Z,13.35
2022-11-05T12:25:32.702Z,8.32
2022-11-05T12:28:12.064Z,12.82
2022-11-05T12:31:04.947Z,10.80
2022-11-05T12:33:56.481Z,10.82
2022-11-05T12:36:38.993Z,8.35
2022-11-05T12:39:20.228Z,8.88
2022-11-05T12:41:54.706Z,10.10
2022-11-05T12:44:37.297Z,10.15
2022-11-05T12:47:25.379Z,12.10
2022-11-05T12:50:18.658Z,11.13
2022-11-05T12:53:04.695Z,9.30
2022-11-05T12:55:45.507Z,6.35
2022-11-05T12:58:26.220Z,11.63
2022-11-05T13:01:02.947Z,11.50
2022-11-05T13:03:54.070Z,10.18
2022-11-05T13:06:48.542Z,14.25
2022-11-05T13:09:31.867Z,7.45
2022-11-05T13:12:03.711Z,9.95
2022-11-05T13:14:47.489Z,13.30
2022-11-05T13:17:18.879Z,13.90
2022-11-05T13:19:52.640Z,9.15
2022-11-05T13:22:39.423Z,12.30
2022-11-05T13:25:35.213Z,13.18
2022-11-05T13:28:05.249Z,17.05
2022-11-05T13:30:38.249Z,9.55
2022-11-05T13:33:13.014Z,6.53
2022-11-05T13:36:26.171Z,12.20
2022-11-05T13:39:16.833Z,10.43
2022-11-05T13:42:08.989Z,10.50
2022-11-05T13:45:07.805Z,11.82
2022-11-05T13:47:50.437Z,10.93
2022-11-05T13:50:55.527Z,7.70
2022-11-05T13:53:49.379Z,14.60
2022-11-05T13:56:39.364Z,10.45
2022-11-05T13:59:45.611Z,18.13
2022-11-05T14:02:25.566Z,12.52
2022-11-05T14:05:00.702Z,12.70
2022-11-05T14:07:44.141Z,11.75
2022-11-05T14:10:26.299Z,9.50
2022-11-05T14:12:54.928Z,10.30
2022-11-05T14:15:26.197Z,6.53
2022-11-05T14:18:36.974Z,6.70
2022-11-05T14:21:05.911Z,16.75
2022-11-05T14:23:41.233Z,9.90
2022-11-05T14:26:20.659Z,4.93
2022-11-05T14:28:50.128Z,14.32
2022-11-05T14:31:40.976Z,9.02
2022-11-05T14:34:11.657Z,11.65
2022-11-05T14:36:40.383Z,11.32
2022-11-05T14:39:18.876Z,10.60
2022-11-05T14:41:57.217Z,10.13
2022-11-05T14:44:25.466Z,12.73
2022-11-05T14:46:55.486Z,11.20
2022-11-05T14:49:25.790Z,12.40
2022-11-05T14:51:55.938Z,17.23
2022-11-05T14:54:35.784Z,12.27
2022-11-05T14:57:03.636Z,8.63
2022-11-05T14:59:35.091Z,7.38
2022-11-05T15:02:15.691Z,16.52
2022-11-05T15:04:47.548Z,12.68
2022-11-05T15:07:34.925Z,6.78
2022-11-05T15:10:14.580Z,7.55
2022-11-05T15:13:24.714Z,11.32
2022-11-05T15:15:55.793Z,5.68
2022-11-05T15:18:33.979Z,8.90
2022-11-05T15:21:03.044Z,9.50
2022-11-05T15:23:36.557Z,6.93
2022-11-05T15:26:07.441Z,12.38
2022-11-05T15:29:03.115Z,10.95
2022-11-05T15:31:31.899Z,7.95
2022-11-05T15:34:25.809Z,10.32
2022-11-05T15:37:09.943Z,6.78
2022-11-05T15:39:45.939Z,8.20
2022-11-05T15:42:15.250Z,9.65
2022-11-05T15:47:16.876Z,14.00
2022-11-05T15:49:50.012Z,12.10
2022-11-05T15:52:20.200Z,11.10
2022-11-05T15:55:05.859Z,13.75
2022-11-05T15:57:33.348Z,10.63
2022-11-05T16:00:07.743Z,13.35
2022-11-05T16:02:36.478Z,187.07
2022-11-05T16:05:09.336Z,151.18
2022-11-05T16:07:36.694Z,86.40
2022-11-05T16:10:07.385Z,40.80
2022-11-05T16:12:38.855Z,41.03
2022-11-05T16:15:09.079Z,38.05
2022-11-05T16:17:57.648Z,23.88
2022-11-05T16:20:36.150Z,18.42
2022-11-05T16:23:06.241Z,10.97
2022-11-05T16:25:43.547Z,18.77
2022-11-05T16:28:25.237Z,15.07
2022-11-05T16:31:03.035Z,21.00
2022-11-05T16:33:46.429Z,13.90
2022-11-05T16:36:13.896Z,18.52
2022-11-05T16:38:41.448Z,14.55
2022-11-05T16:41:14.369Z,20.35
2022-11-05T16:43:49.555Z,22.60
2022-11-05T16:46:16.962Z,29.02
2022-11-05T16:48:44.258Z,22.52
2022-11-05T16:51:12.181Z,18.90
2022-11-05T16:53:39.469Z,13.23
2022-11-05T16:56:08.768Z,18.20
2022-11-05T17:01:05.661Z,17.95
2022-11-05T17:03:32.895Z,26.13
2022-11-05T17:06:04.150Z,31.50
2022-11-05T17:08:31.693Z,29.52
2022-11-05T17:10:58.957Z,22.80
2022-11-05T17:13:26.202Z,21.92
2022-11-05T17:15:53.726Z,24.42
2022-11-05T17:18:23.664Z,23.10
2022-11-05T17:20:53.382Z,23.48
2022-11-05T17:23:22.821Z,18.02
2022-11-05T17:25:58.213Z,17.55
2022-11-05T17:28:36.615Z,19.83
2022-11-05T17:31:08.029Z,18.30
2022-11-05T17:33:35.257Z,25.52
2022-11-05T17:36:09.658Z,16.38
2022-11-05T17:38:37.074Z,24.85
2022-11-05T17:41:19.084Z,17.70
2022-11-05T17:43:46.841Z,21.05
2022-11-05T17:46:16.905Z,17.17
2022-11-05T17:48:44.853Z,14.45
2022-11-05T17:51:15.157Z,18.80
2022-11-05T17:53:42.943Z,12.48
2022-11-05T17:56:11.320Z,18.20
2022-11-05T17:58:39.180Z,26.08
2022-11-05T18:01:08.369Z,21.92
2022-11-05T18:03:35.809Z,16.20
2022-11-05T18:06:07.645Z,23.75
2022-11-05T18:08:34.983Z,16.67
2022-11-05T18:11:03.931Z,16.73
2022-11-05T18:13:31.074Z,23.88
2022-11-05T18:15:58.309Z,24.50
2022-11-05T18:18:25.491Z,13.50
2022-11-05T18:20:52.708Z,19.65
2022-11-05T18:23:19.916Z,15.15
2022-11-05T18:25:47.096Z,13.77
2022-11-05T18:28:14.680Z,15.00
2022-11-05T18:30:42.191Z,24.75
2022-11-05T18:33:09.955Z,27.60
2022-11-05T18:35:44.373Z,23.50
2022-11-05T18:38:11.789Z,14.75
2022-11-05T18:40:39.225Z,14.88
2022-11-05T18:43:06.391Z,14.60
2022-11-05T18:45:33.693Z,16.73
2022-11-05T18:48:02.080Z,21.10
2022-11-05T18:50:29.996Z,17.33
2022-11-05T18:52:57.510Z,16.33
2022-11-05T18:55:25.300Z,19.25
2022-11-05T18:57:52.520Z,17.10
2022-11-05T19:00:20.214Z,19.30
2022-11-05T19:02:47.509Z,21.85
2022-11-05T19:05:28.616Z,26.48
2022-11-05T19:07:56.841Z,38.00
2022-11-05T19:10:24.093Z,44.80
2022-11-05T19:12:51.321Z,39.78
2022-11-05T19:15:18.679Z,47.15
2022-11-05T19:17:46.654Z,46.13
2022-11-05T19:20:13.931Z,43.40
2022-11-05T19:22:41.126Z,43.10
2022-11-05T19:25:08.590Z,36.97
2022-11-05T19:27:37.457Z,47.80
2022-11-05T19:30:05.585Z,44.67
2022-11-05T19:32:32.734Z,58.28
2022-11-05T19:34:59.958Z,68.55
2022-11-05T19:37:27.322Z,62.47
2022-11-05T19:39:54.491Z,74.95
2022-11-05T19:42:21.985Z,85.20
2022-11-05T19:44:49.157Z,81.88
2022-11-05T19:47:16.401Z,93.80
2022-11-05T19:49:43.640Z,114.80
2022-11-05T19:52:10.937Z,105.07
2022-11-05T19:54:40.497Z,103.05
2022-11-05T19:57:07.717Z,107.35
2022-11-05T19:59:35.185Z,112.82
2022-11-05T20:02:02.513Z,119.65
2022-11-05T20:04:29.824Z,116.90
2022-11-05T20:06:57.175Z,130.90
2022-11-05T20:09:25.845Z,130.07
2022-11-05T20:11:54.791Z,128.90
2022-11-05T20:14:23.028Z,143.00
2022-11-05T20:16:50.869Z,169.77
2022-11-05T20:19:20.184Z,166.73
2022-11-05T20:21:47.678Z,185.73
2022-11-05T20:24:22.465Z,198.90
2022-11-05T20:26:56.114Z,183.45
2022-11-05T20:29:26.021Z,175.45
2022-11-05T20:31:57.027Z,169.55
2022-11-05T20:34:24.885Z,173.68
2022-11-05T20:36:52.086Z,167.40
2022-11-05T20:39:21.153Z,171.00
2022-11-05T20:41:48.326Z,172.70
2022-11-05T20:44:15.604Z,177.70
2022-11-05T20:46:42.780Z,161.23
2022-11-05T20:49:09.960Z,147.32
2022-11-05T20:51:37.302Z,151.38
2022-11-05T20:54:05.349Z,129.05
2022-11-05T20:56:35.308Z,121.65
2022-11-05T20:59:03.323Z,122.13
2022-11-05T21:01:32.315Z,113.47
2022-11-05T21:03:59.858Z,116.93
2022-11-05T21:06:27.089Z,89.22
2022-11-05T21:08:54.578Z,91.65
2022-11-05T21:11:22.153Z,79.82
2022-11-05T21:13:49.647Z,74.38
2022-11-05T21:16:18.844Z,76.00
2022-11-05T21:18:47.271Z,65.50
2022-11-05T21:21:17.433Z,66.30
2022-11-05T21:23:44.887Z,52.45
2022-11-05T21:26:14.314Z,49.53
2022-11-05T21:28:42.525Z,51.55
2022-11-05T21:31:10.111Z,44.58
2022-11-05T21:33:37.600Z,36.92
2022-11-05T21:36:09.951Z,32.63
2022-11-05T21:38:40.683Z,38.53
2022-11-05T21:41:08.609Z,31.10
2022-11-05T21:43:37.155Z,39.65
2022-11-05T21:46:05.098Z,34.07
2022-11-05T21:48:32.636Z,36.97
2022-11-05T21:51:20.459Z,28.92
2022-11-05T21:54:06.551Z,28.55
2022-11-05T21:56:52.810Z,32.38
2022-11-05T21:59:40.763Z,25.27
2022-11-05T22:02:09.138Z,28.23
2022-11-05T22:04:41.234Z,30.10
2022-11-05T22:07:09.895Z,36.05
2022-11-05T22:09:37.475Z,29.50
2022-11-05T22:12:05.437Z,37.90
2022-11-05T22:14:32.937Z,30.15
2022-11-05T22:17:00.303Z,32.53
2022-11-05T22:19:27.801Z,28.80
2022-11-05T22:21:54.934Z,20.23
2022-11-05T22:24:22.285Z,23.42
2022-11-05T22:26:49.528Z,25.45
2022-11-05T22:29:17.102Z,32.47
2022-11-05T22:31:44.286Z,31.63
2022-11-05T22:34:12.125Z,36.65
2022-11-05T22:36:39.805Z,45.72
2022-11-05T22:39:07.360Z,69.53
2022-11-05T22:41:34.857Z,61.65
2022-11-05T22:44:03.471Z,75.38
2022-11-05T22:46:31.313Z,60.83
2022-11-05T22:48:59.021Z,86.93
2022-11-05T22:51:28.642Z,82.80
2022-11-05T22:53:56.096Z,93.65
2022-11-05T22:56:25.161Z,103.57
2022-11-05T22:58:52.776Z,98.63
2022-11-05T23:01:22.067Z,96.15
2022-11-05T23:06:38.266Z,82.60
2022-11-05T23:09:31.552Z,52.00
2022-11-05T23:11:59.088Z,65.43
2022-11-05T23:14:26.765Z,66.05
2022-11-05T23:17:12.660Z,41.50
2022-11-05T23:19:59.252Z,33.80
2022-11-05T23:22:47.637Z,40.20
2022-11-05T23:25:22.055Z,29.80
2022-11-05T23:27:50.720Z,39.72
2022-11-05T23:30:20.617Z,33.88
2022-11-05T23:32:48.916Z,40.33
2022-11-05T23:35:17.800Z,32.85
2022-11-05T23:38:03.501Z,37.10
2022-11-05T23:40:51.528Z,36.35
2022-11-05T23:43:37.293Z,39.78
2022-11-05T23:46:23.211Z,28.67
2022-11-05T23:48:52.476Z,34.00
2022-11-05T23:51:19.646Z,24.30
2022-11-05T23:53:46.996Z,29.05
2022-11-05T23:56:15.202Z,23.17
2022-11-05T23:58:42.985Z,31.13
